createdAt,value
2019-05-19T05:15:58.317Z,95.70
2019-05-19T05:18:47.818Z,96.20
2019-05-19T05:21:13.637Z,96.30
2019-05-19T05:23:40.137Z,96.50
2019-05-19T05:28:38.866Z,96.20
2019-05-19T05:31:09.209Z,95.80
2019-05-19T05:33:36.133Z,96.00
2019-05-19T05:36:08.331Z,96.40
2019-05-19T05:38:37.078Z,96.40
2019-05-19T05:41:12.389Z,96.20
2019-05-19T05:43:50.927Z,95.80
2019-05-19T05:46:17.546Z,95.20
2019-05-19T05:48:51.067Z,95.20
2019-05-19T05:51:19.351Z,95.70
2019-05-19T05:53:45.380Z,95.80
2019-05-19T05:56:13.629Z,95.50
2019-05-19T05:58:40.022Z,95.40
2019-05-19T06:01:08.711Z,94.50
2019-05-19T06:03:34.850Z,94.20
2019-05-19T06:06:01.641Z,94.50
2019-05-19T06:08:27.678Z,95.00
2019-05-19T06:10:59.306Z,95.20
2019-05-19T06:13:29.322Z,94.90
2019-05-19T06:15:56.733Z,93.80
2019-05-19T06:18:34.352Z,93.20
2019-05-19T06:21:00.378Z,92.30
2019-05-19T06:23:31.645Z,91.80
2019-05-19T06:25:59.639Z,91.90
2019-05-19T06:28:25.950Z,91.90
2019-05-19T06:30:52.457Z,91.90
2019-05-19T06:33:19.114Z,90.90
2019-05-19T06:35:46.096Z,92.00
2019-05-19T06:38:14.242Z,91.40
2019-05-19T06:40:40.960Z,92.30
2019-05-19T06:43:08.549Z,90.70
2019-05-19T06:45:34.618Z,90.20
2019-05-19T06:48:03.544Z,89.80
2019-05-19T06:50:31.486Z,90.60
2019-05-19T06:53:12.775Z,90.60
2019-05-19T06:55:26.685Z,90.20
2019-05-19T06:57:53.006Z,90.00
2019-05-19T07:00:20.592Z,89.80
2019-05-19T07:02:46.759Z,88.20
2019-05-19T07:05:14.621Z,89.90
2019-05-19T07:07:40.650Z,88.30
2019-05-19T07:10:07.687Z,88.20
2019-05-19T07:12:34.126Z,88.30
2019-05-19T07:15:00.567Z,88.40
2019-05-19T07:17:26.680Z,85.60
2019-05-19T07:19:54.247Z,88.90
2019-05-19T07:22:21.464Z,86.90
2019-05-19T07:24:47.967Z,87.50
2019-05-19T07:27:19.790Z,86.60
2019-05-19T07:29:54.983Z,87.50
2019-05-19T07:37:52.950Z,85.30
2019-05-19T07:43:12.905Z,84.60
2019-05-19T07:48:23.381Z,84.40
2019-05-19T07:54:06.225Z,82.20
2019-05-19T07:59:15.485Z,84.50
2019-05-19T08:04:17.310Z,83.20
2019-05-19T08:09:30.937Z,85.00
2019-05-19T08:11:57.128Z,79.90
2019-05-19T08:19:28.934Z,77.90
2019-05-19T08:21:56.901Z,80.60
2019-05-19T08:35:20.907Z,75.40
2019-05-19T08:42:57.418Z,74.60
2019-05-19T08:48:15.107Z,75.90
2019-05-19T08:50:46.881Z,75.70
2019-05-19T08:59:36.943Z,74.50
2019-05-19T09:02:02.983Z,73.50
2019-05-19T09:04:30.018Z,74.30
2019-05-19T09:12:29.312Z,71.70
2019-05-19T09:15:00.458Z,71.40
2019-05-19T09:22:36.752Z,68.80
2019-05-19T09:25:06.723Z,68.20
2019-05-19T09:27:33.953Z,71.10
2019-05-19T09:40:32.965Z,68.30
2019-05-19T09:45:47.078Z,66.90
2019-05-19T09:50:45.692Z,67.80
2019-05-19T09:55:51.413Z,68.30
2019-05-19T09:58:20.110Z,68.40
2019-05-19T10:00:50.954Z,66.80
2019-05-19T10:08:29.260Z,64.00
2019-05-19T10:13:59.038Z,67.10
2019-05-19T10:18:57.371Z,65.70
2019-05-19T10:21:23.955Z,67.50
2019-05-19T10:23:50.026Z,68.40
2019-05-19T10:26:21.719Z,68.00
2019-05-19T10:33:52.608Z,68.20
2019-05-19T10:36:28.013Z,65.90
2019-05-19T10:38:59.758Z,65.20
2019-05-19T10:44:15.562Z,64.00
2019-05-19T10:49:19.626Z,59.30
2019-05-19T10:54:30.620Z,63.80
2019-05-19T10:59:34.855Z,58.80
2019-05-19T11:04:34.637Z,60.70
2019-05-19T11:09:35.602Z,58.60
2019-05-19T11:14:34.795Z,55.10
2019-05-19T11:19:35.497Z,50.10
2019-05-19T11:24:35.201Z,51.80
2019-05-19T11:34:49.500Z,51.90
2019-05-19T11:42:40.509Z,56.00
2019-05-19T11:47:39.856Z,54.70
2019-05-19T11:52:40.129Z,52.90
2019-05-19T11:57:40.833Z,51.40
2019-05-19T12:02:40.596Z,52.00
2019-05-19T12:07:42.010Z,54.70
2019-05-19T12:10:08.438Z,55.80
2019-05-19T12:17:47.076Z,58.00
2019-05-19T12:20:13.598Z,57.70
2019-05-19T12:27:46.530Z,60.20
2019-05-19T12:38:21.444Z,61.10
2019-05-19T12:43:42.609Z,61.50
2019-05-19T12:48:43.417Z,61.60
2019-05-19T12:51:09.592Z,62.70
2019-05-19T12:58:42.481Z,63.20
2019-05-19T13:01:13.485Z,62.60
2019-05-19T13:08:47.861Z,62.90
2019-05-19T13:11:13.885Z,63.70
2019-05-19T13:18:45.957Z,63.50
2019-05-19T13:21:27.784Z,64.20
2019-05-19T13:23:56.612Z,66.10
2019-05-19T13:26:22.656Z,65.90
2019-05-19T13:33:52.736Z,66.80
2019-05-19T13:37:19.044Z,65.20
2019-05-19T13:39:49.930Z,66.50
2019-05-19T13:42:19.325Z,67.60
2019-05-19T13:45:09.229Z,65.90
2019-05-19T13:47:51.667Z,65.50
2019-05-19T13:50:18.558Z,62.90
2019-05-19T13:52:44.584Z,60.30
2019-05-19T13:57:53.952Z,59.10
2019-05-19T14:00:21.505Z,61.30
2019-05-19T14:02:49.864Z,61.30
2019-05-19T14:05:16.111Z,60.60
2019-05-19T14:07:44.283Z,59.80
2019-05-19T14:10:10.810Z,60.90
2019-05-19T14:12:36.832Z,62.90
2019-05-19T14:15:05.814Z,61.90
2019-05-19T14:17:32.042Z,61.70
2019-05-19T14:19:58.793Z,60.60
2019-05-19T14:22:27.772Z,62.00
2019-05-19T14:24:53.885Z,60.00
2019-05-19T14:27:30.231Z,58.60
2019-05-19T14:29:50.154Z,59.70
2019-05-19T14:32:16.185Z,59.80
2019-05-19T14:34:42.318Z,58.60
2019-05-19T14:37:08.874Z,57.90
2019-05-19T14:39:35.103Z,57.50
2019-05-19T14:42:04.360Z,58.10
2019-05-19T14:44:30.442Z,55.30
2019-05-19T14:46:56.521Z,58.10
2019-05-19T14:49:24.406Z,58.70
2019-05-19T14:51:51.037Z,58.20
2019-05-19T14:54:17.148Z,57.40
2019-05-19T14:56:43.273Z,59.10
2019-05-19T14:59:09.413Z,59.70
2019-05-19T15:01:35.446Z,59.10
2019-05-19T15:04:01.478Z,57.00
2019-05-19T15:06:27.585Z,57.60
2019-05-19T15:08:53.617Z,57.50
2019-05-19T15:11:20.235Z,59.40
2019-05-19T15:13:47.692Z,61.40
2019-05-19T15:16:13.730Z,59.60
2019-05-19T15:18:41.585Z,56.90
2019-05-19T15:21:07.640Z,55.20
2019-05-19T15:23:33.686Z,54.10
2019-05-19T15:25:59.857Z,53.70
2019-05-19T15:28:25.886Z,53.50
2019-05-19T15:30:52.508Z,52.30
2019-05-19T15:33:18.646Z,52.10
2019-05-19T15:35:44.682Z,52.70
2019-05-19T15:38:10.777Z,51.50
2019-05-19T15:40:36.799Z,51.70
2019-05-19T15:43:04.063Z,53.30
2019-05-19T15:45:30.945Z,52.50
2019-05-19T15:47:57.251Z,50.60
2019-05-19T15:50:23.298Z,52.60
2019-05-19T15:52:49.711Z,52.30
2019-05-19T15:55:15.746Z,52.60
2019-05-19T15:57:41.852Z,53.50
2019-05-19T16:00:09.074Z,53.40
2019-05-19T16:02:35.243Z,55.00
2019-05-19T16:05:01.846Z,55.10
2019-05-19T16:07:28.133Z,54.60
2019-05-19T16:09:54.319Z,54.60
2019-05-19T16:12:20.366Z,54.60
2019-05-19T16:14:59.907Z,53.40
2019-05-19T16:17:26.135Z,54.30
2019-05-19T16:40:02.083Z,56.90
2019-05-19T16:42:35.143Z,56.90
2019-05-19T16:45:01.333Z,58.30
2019-05-19T16:47:27.607Z,56.30
2019-05-19T16:49:53.819Z,55.30
2019-05-19T16:52:19.886Z,56.00
2019-05-19T16:54:47.925Z,55.00
2019-05-19T16:57:14.056Z,55.10
2019-05-19T16:59:40.107Z,55.30
2019-05-19T17:02:06.174Z,55.80
2019-05-19T17:04:32.337Z,55.60
2019-05-19T17:06:58.503Z,56.00
2019-05-19T17:09:24.648Z,56.00
2019-05-19T17:11:50.913Z,55.10
2019-05-19T17:14:16.951Z,56.00
2019-05-19T17:16:43.138Z,55.40
2019-05-19T17:19:09.307Z,56.30
2019-05-19T17:21:35.431Z,56.20
2019-05-19T17:24:01.513Z,56.50
2019-05-19T17:26:27.768Z,56.20
2019-05-19T17:29:00.531Z,56.40
2019-05-19T17:31:21.863Z,57.00
2019-05-19T17:33:48.002Z,56.40
2019-05-19T17:36:14.209Z,56.20
2019-05-19T17:38:40.297Z,56.90
2019-05-19T17:41:06.567Z,57.00
2019-05-19T17:43:32.638Z,57.50
2019-05-19T17:45:59.137Z,57.90
2019-05-19T17:48:27.058Z,58.60
2019-05-19T17:50:53.292Z,59.20
2019-05-19T17:53:19.857Z,59.40
2019-05-19T17:55:47.071Z,60.60
2019-05-19T17:58:13.327Z,61.30
2019-05-19T18:00:40.482Z,61.90
2019-05-19T18:03:06.642Z,62.40
2019-05-19T18:05:33.340Z,63.70
2019-05-19T18:07:59.618Z,64.60
2019-05-19T18:10:25.814Z,65.50
2019-05-19T18:12:51.872Z,66.00
2019-05-19T18:15:18.049Z,66.70
2019-05-19T18:17:44.094Z,67.50
2019-05-19T18:20:22.966Z,68.00
2019-05-19T18:22:38.171Z,68.30
2019-05-19T18:25:04.531Z,69.50
2019-05-19T18:27:30.842Z,69.80
2019-05-19T18:29:56.988Z,70.20
2019-05-19T18:32:23.233Z,70.50
2019-05-19T18:34:49.279Z,71.30
2019-05-19T18:37:15.440Z,72.20
2019-05-19T18:39:41.630Z,73.00
2019-05-19T18:42:07.682Z,74.10
2019-05-19T18:44:33.932Z,73.70
2019-05-19T18:46:59.982Z,74.10
2019-05-19T18:49:26.175Z,74.20
2019-05-19T18:51:52.263Z,75.30
2019-05-19T18:54:18.522Z,74.80
2019-05-19T18:56:44.638Z,75.20
2019-05-19T18:59:10.711Z,75.50
2019-05-19T19:01:37.000Z,75.00
2019-05-19T19:04:03.362Z,75.20
2019-05-19T19:06:30.693Z,76.30
2019-05-19T19:08:57.923Z,76.10
2019-05-19T19:11:24.215Z,75.30
2019-05-19T19:13:50.309Z,74.90
2019-05-19T19:16:16.455Z,74.50
2019-05-19T19:18:42.651Z,76.10
2019-05-19T19:21:08.756Z,77.40
2019-05-19T19:23:34.894Z,77.90
2019-05-19T19:26:01.122Z,77.70
2019-05-19T19:28:27.252Z,77.50
2019-05-19T19:30:53.415Z,77.80
2019-05-19T19:33:19.640Z,78.30
2019-05-19T19:35:45.773Z,78.70
2019-05-19T19:38:12.017Z,78.90
2019-05-19T19:40:38.284Z,78.80
2019-05-19T19:43:04.474Z,79.90
2019-05-19T19:45:30.619Z,80.00
2019-05-19T19:47:56.769Z,80.90
2019-05-19T19:50:23.098Z,80.90
2019-05-19T19:52:49.386Z,81.20
2019-05-19T19:55:15.523Z,81.10
2019-05-19T19:57:41.677Z,81.10
2019-05-19T20:00:17.965Z,82.30
2019-05-19T20:02:36.282Z,82.70
2019-05-19T20:05:03.436Z,82.70
2019-05-19T20:07:29.637Z,83.10
2019-05-19T20:09:55.890Z,83.50
2019-05-19T20:12:21.945Z,83.60
2019-05-19T20:14:48.142Z,83.50
2019-05-19T20:17:14.199Z,84.80
2019-05-19T20:19:40.398Z,84.80
2019-05-19T20:22:06.465Z,86.00
2019-05-19T20:24:32.745Z,86.10
2019-05-19T20:26:58.875Z,85.90
2019-05-19T20:29:24.956Z,86.20
2019-05-19T20:31:51.148Z,86.50
2019-05-19T20:34:17.354Z,86.20
2019-05-19T20:36:43.508Z,86.20
2019-05-19T20:39:09.675Z,86.80
2019-05-19T20:41:35.763Z,86.80
2019-05-19T20:44:02.576Z,87.50
2019-05-19T20:46:28.801Z,87.50
2019-05-19T20:48:55.053Z,87.50
2019-05-19T20:51:21.325Z,87.50
2019-05-19T20:53:47.589Z,87.70
2019-05-19T20:56:13.718Z,88.20
2019-05-19T20:58:39.840Z,88.50
2019-05-19T21:01:05.980Z,88.80
2019-05-19T21:03:32.272Z,89.60
2019-05-19T21:05:58.427Z,87.80
2019-05-19T21:08:24.546Z,88.30
2019-05-19T21:10:50.679Z,88.80
2019-05-19T21:13:16.907Z,89.20
2019-05-19T21:15:42.959Z,89.00
2019-05-19T21:18:09.379Z,88.80
2019-05-19T21:20:35.557Z,89.50
2019-05-19T21:23:01.742Z,90.00
2019-05-19T21:25:28.055Z,90.60
2019-05-19T21:27:54.140Z,90.70
2019-05-19T21:30:20.451Z,90.30
2019-05-19T21:32:46.597Z,90.10
2019-05-19T21:35:13.868Z,91.80
2019-05-19T21:37:40.047Z,92.70
2019-05-19T21:40:06.942Z,92.80
2019-05-19T21:42:33.107Z,93.70
